createdAt,value
2022-11-09T00:02:44.113Z,97672.47
2022-11-09T00:06:48.975Z,97671.66
2022-11-09T00:10:52.195Z,97683.16
2022-11-09T00:14:55.618Z,97686.06
2022-11-09T00:18:59.252Z,97674.91
2022-11-09T00:23:03.990Z,97678.16
2022-11-09T00:27:07.386Z,97683.84
2022-11-09T00:31:14.453Z,97675.22
2022-11-09T00:35:17.803Z,97667.41
2022-11-09T00:39:22.652Z,97676.84
2022-11-09T00:43:26.211Z,97679.44
2022-11-09T00:47:29.245Z,97681.38
2022-11-09T00:51:32.753Z,97690.94
2022-11-09T00:55:37.850Z,97689.31
2022-11-09T00:59:40.998Z,97684.97
2022-11-09T01:03:45.585Z,97692.38
2022-11-09T01:07:49.097Z,97686.44
2022-11-09T01:11:53.494Z,97683.63
2022-11-09T01:15:56.892Z,97691.28
2022-11-09T01:20:00.343Z,97693.19
2022-11-09T01:24:03.843Z,97685.84
2022-11-09T01:28:10.136Z,97688.16
2022-11-09T01:32:13.161Z,97671.75
2022-11-09T01:36:18.970Z,97663.16
2022-11-09T01:40:22.331Z,97653.56
2022-11-09T01:44:29.031Z,97653.28
2022-11-09T01:48:38.728Z,97660.28
2022-11-09T01:52:45.477Z,97662.03
2022-11-09T01:56:50.442Z,97659.44
2022-11-09T02:01:00.943Z,97664.50
2022-11-09T02:05:09.816Z,97646.75
2022-11-09T02:09:20.344Z,97653.56
2022-11-09T02:13:28.437Z,97650.31
2022-11-09T02:17:34.357Z,97640.91
2022-11-09T02:21:39.270Z,97640.50
2022-11-09T02:25:43.027Z,97634.34
2022-11-09T02:29:48.470Z,97625.53
2022-11-09T02:33:55.701Z,97647.47
2022-11-09T02:38:00.880Z,97640.66
2022-11-09T02:42:10.426Z,97632.03
2022-11-09T02:46:14.036Z,97630.44
2022-11-09T02:50:17.802Z,97632.66
2022-11-09T02:54:22.467Z,97634.56
2022-11-09T02:58:25.875Z,97628.34
2022-11-09T03:02:29.381Z,97632.34
2022-11-09T03:06:36.007Z,97637.00
2022-11-09T03:10:40.597Z,97632.91
2022-11-09T03:14:44.066Z,97626.25
2022-11-09T03:18:47.544Z,97627.34
2022-11-09T03:22:50.580Z,97630.09
2022-11-09T03:26:55.677Z,97628.59
2022-11-09T03:30:58.882Z,97630.69
2022-11-09T03:35:02.389Z,97632.75
2022-11-09T03:39:05.947Z,97638.91
2022-11-09T03:43:10.412Z,97645.84
2022-11-09T03:47:14.095Z,97653.63
2022-11-09T03:51:17.527Z,97649.28
2022-11-09T03:55:20.906Z,97650.09
2022-11-09T03:59:25.771Z,97649.50
2022-11-09T04:03:29.484Z,97656.34
2022-11-09T04:07:32.567Z,97655.38
2022-11-09T04:11:36.319Z,97657.00
2022-11-09T04:15:42.288Z,97657.00
2022-11-09T04:19:45.445Z,97650.34
2022-11-09T04:23:50.288Z,97651.81
2022-11-09T04:27:57.634Z,97631.88
2022-11-09T04:32:02.271Z,97635.88
2022-11-09T04:36:06.369Z,97626.59
2022-11-09T04:40:11.212Z,97624.97
2022-11-09T04:44:14.261Z,97613.53
2022-11-09T04:48:19.120Z,97597.13
2022-11-09T04:52:22.866Z,97590.63
2022-11-09T04:56:25.811Z,97591.72
2022-11-09T05:00:29.362Z,97601.28
2022-11-09T05:04:33.923Z,97606.47
2022-11-09T05:08:37.405Z,97619.28
2022-11-09T05:12:45.856Z,97634.72
2022-11-09T05:16:49.182Z,97624.91
2022-11-09T05:20:54.078Z,97640.00
2022-11-09T05:24:57.559Z,97629.78
2022-11-09T05:29:01.135Z,97657.56
2022-11-09T05:33:05.427Z,97669.47
2022-11-09T05:37:10.393Z,97663.44
2022-11-09T05:41:13.676Z,97669.59
2022-11-09T05:45:41.505Z,97674.13
2022-11-09T05:49:43.152Z,97702.16
2022-11-09T05:53:48.008Z,97688.69
2022-11-09T05:57:51.048Z,97690.53
2022-11-09T06:01:55.678Z,97679.66
2022-11-09T06:06:07.860Z,97675.44
2022-11-09T06:10:13.406Z,97669.56
2022-11-09T06:14:16.973Z,97661.38
2022-11-09T06:18:20.345Z,97663.16
2022-11-09T06:22:23.748Z,97669.47
2022-11-09T06:26:28.221Z,97681.88
2022-11-09T06:34:56.304Z,97701.00
2022-11-09T06:38:59.779Z,97693.09
2022-11-09T06:43:05.481Z,97687.75
2022-11-09T06:47:08.826Z,97688.41
2022-11-09T06:51:13.453Z,97687.63
2022-11-09T06:55:17.143Z,97689.38
2022-11-09T06:59:21.585Z,97691.97
2022-11-09T07:03:25.757Z,97689.25
2022-11-09T07:07:29.514Z,97683.78
2022-11-09T07:11:32.517Z,97699.84
2022-11-09T07:15:38.931Z,97719.22
2022-11-09T07:19:42.720Z,97707.47
2022-11-09T07:23:48.058Z,97713.03
2022-11-09T07:27:51.713Z,97703.84
2022-11-09T07:31:56.532Z,97703.28
2022-11-09T07:36:00.679Z,97708.06
2022-11-09T07:40:04.140Z,97709.25
2022-11-09T07:44:07.845Z,97719.06
2022-11-09T07:48:13.324Z,97716.31
2022-11-09T07:52:17.146Z,97710.84
2022-11-09T07:56:20.746Z,97721.88
2022-11-09T08:00:24.479Z,97713.16
2022-11-09T08:04:29.476Z,97719.97
2022-11-09T08:08:32.958Z,97731.97
2022-11-09T08:12:37.379Z,97723.25
2022-11-09T08:16:41.235Z,97718.69
2022-11-09T08:20:46.299Z,97723.31
2022-11-09T08:24:49.436Z,97717.00
2022-11-09T08:28:52.387Z,97727.66
2022-11-09T08:32:55.618Z,97733.91
2022-11-09T08:37:05.714Z,97729.78
2022-11-09T08:41:13.261Z,97748.31
2022-11-09T08:45:17.300Z,97755.69
2022-11-09T08:49:20.489Z,97757.69
2022-11-09T08:53:25.966Z,97764.06
2022-11-09T08:57:30.214Z,97754.22
2022-11-09T09:01:33.222Z,97753.09
2022-11-09T09:05:37.686Z,97751.97
2022-11-09T09:09:42.926Z,97752.94
2022-11-09T09:13:46.712Z,97752.81
2022-11-09T09:17:50.252Z,97761.56
2022-11-09T09:21:55.500Z,97763.78
2022-11-09T09:26:00.771Z,97767.34
2022-11-09T09:30:04.523Z,97781.00
2022-11-09T09:34:08.294Z,97777.97
2022-11-09T09:38:11.889Z,97779.81
2022-11-09T09:42:20.231Z,97777.97
2022-11-09T09:46:28.553Z,97790.09
2022-11-09T09:50:38.373Z,97783.31
2022-11-09T09:54:45.381Z,97788.56
2022-11-09T09:58:57.506Z,97797.06
2022-11-09T10:03:02.369Z,97800.47
2022-11-09T10:07:15.185Z,97797.84
2022-11-09T10:11:26.070Z,97779.19
2022-11-09T10:15:34.067Z,97787.69
2022-11-09T10:19:50.728Z,97787.00
2022-11-09T10:24:08.187Z,97781.94
2022-11-09T10:28:15.409Z,97798.09
2022-11-09T10:32:22.252Z,97793.91
2022-11-09T10:36:30.557Z,97788.59
2022-11-09T10:40:40.645Z,97793.06
2022-11-09T10:44:44.191Z,97790.84
2022-11-09T10:48:49.258Z,97787.28
2022-11-09T10:52:52.812Z,97792.88
2022-11-09T10:57:13.401Z,97804.16
2022-11-09T11:01:20.324Z,97812.00
2022-11-09T11:05:29.387Z,97816.91
2022-11-09T11:09:32.893Z,97810.22
2022-11-09T11:13:36.295Z,97822.72
2022-11-09T11:17:41.550Z,97811.81
2022-11-09T11:21:46.494Z,97807.25
2022-11-09T11:26:04.038Z,97802.94
2022-11-09T11:30:14.297Z,97790.16
2022-11-09T11:34:38.410Z,97791.91
2022-11-09T11:38:52.511Z,97791.28
2022-11-09T11:43:18.499Z,97796.53
2022-11-09T11:47:29.449Z,97789.69
2022-11-09T11:51:42.315Z,97788.22
2022-11-09T11:56:06.111Z,97772.25
2022-11-09T12:00:15.701Z,97775.19
2022-11-09T12:04:37.370Z,97772.25
2022-11-09T12:08:55.767Z,97768.84
2022-11-09T12:13:15.437Z,97762.78
2022-11-09T12:21:34.126Z,97754.81
2022-11-09T12:25:46.018Z,97752.00
2022-11-09T12:30:02.944Z,97735.69
2022-11-09T12:34:15.504Z,97739.09
2022-11-09T12:38:23.575Z,97739.56
2022-11-09T12:42:33.114Z,97729.94
2022-11-09T12:46:42.016Z,97736.97
2022-11-09T12:50:45.726Z,97736.81
2022-11-09T12:54:51.346Z,97738.06
2022-11-09T12:58:56.477Z,97745.72
2022-11-09T13:03:03.905Z,97722.78
2022-11-09T13:07:31.754Z,97726.66
2022-11-09T13:11:40.592Z,97716.94
2022-11-09T13:16:08.267Z,97723.28
2022-11-09T13:20:56.807Z,97720.63
2022-11-09T13:25:02.977Z,97709.72
2022-11-09T13:29:12.648Z,97721.44
2022-11-09T13:33:25.665Z,97726.47
2022-11-09T13:37:49.502Z,97716.06
2022-11-09T13:41:55.295Z,97724.22
2022-11-09T13:46:01.192Z,97720.03
2022-11-09T13:50:18.090Z,97710.47
2022-11-09T13:54:32.920Z,97718.69
2022-11-09T13:58:40.415Z,97719.53
2022-11-09T14:02:54.188Z,97707.50
2022-11-09T14:07:04.801Z,97721.19
2022-11-09T14:11:27.480Z,97718.59
2022-11-09T14:15:45.028Z,97718.25
2022-11-09T14:20:00.706Z,97726.53
2022-11-09T14:24:05.636Z,97719.19
2022-11-09T14:28:21.807Z,97726.34
2022-11-09T14:32:32.883Z,97724.41
2022-11-09T14:36:36.591Z,97713.16
2022-11-09T14:40:45.827Z,97717.56
2022-11-09T14:44:50.264Z,97716.66
2022-11-09T14:48:58.047Z,97726.44
2022-11-09T14:53:02.602Z,97728.34
2022-11-09T14:57:06.474Z,97728.78
2022-11-09T15:01:17.371Z,97728.38
2022-11-09T15:05:36.058Z,97725.66
2022-11-09T15:09:47.007Z,97731.47
2022-11-09T15:13:50.566Z,97728.16
2022-11-09T15:17:54.175Z,97726.84
2022-11-09T15:21:59.614Z,97725.50
2022-11-09T15:26:03.179Z,97733.09
2022-11-09T15:30:07.244Z,97722.78
2022-11-09T15:34:23.360Z,97728.47
2022-11-09T15:38:34.120Z,97742.59
2022-11-09T15:42:38.475Z,97746.47
2022-11-09T15:46:47.395Z,97740.59
2022-11-09T15:50:51.145Z,97757.31
2022-11-09T15:54:55.800Z,97757.31
2022-11-09T15:58:59.399Z,97751.63
2022-11-09T16:03:02.870Z,97744.13
2022-11-09T16:07:06.511Z,97751.63
2022-11-09T16:11:13.045Z,97752.72
2022-11-09T16:15:16.653Z,97747.50
2022-11-09T16:19:20.175Z,97756.59
2022-11-09T16:23:23.203Z,97766.69
2022-11-09T16:27:48.949Z,97761.50
2022-11-09T16:31:53.024Z,97750.56
2022-11-09T16:35:58.964Z,97748.63
2022-11-09T16:40:03.923Z,97757.69
2022-11-09T16:44:09.180Z,97764.53
2022-11-09T16:48:14.321Z,97753.47
2022-11-09T16:52:18.167Z,97764.03
2022-11-09T16:56:21.850Z,97771.13
2022-11-09T17:00:37.667Z,97770.31
2022-11-09T17:04:49.843Z,97765.41
2022-11-09T17:08:57.928Z,97771.72
2022-11-09T17:13:01.468Z,97772.00
2022-11-09T17:17:06.327Z,97781.91
2022-11-09T17:21:11.680Z,97776.72
2022-11-09T17:25:15.730Z,97768.09
2022-11-09T17:29:19.429Z,97756.50
2022-11-09T17:33:25.295Z,97766.59
2022-11-09T17:37:28.903Z,97765.28
2022-11-09T17:41:32.633Z,97767.19
2022-11-09T17:45:36.354Z,97756.72
2022-11-09T17:49:41.582Z,97776.25
2022-11-09T17:53:45.584Z,97778.97
2022-11-09T17:57:49.068Z,97781.72
2022-11-09T18:01:52.876Z,97797.31
2022-11-09T18:05:57.954Z,97794.03
2022-11-09T18:10:03.796Z,97796.78
2022-11-09T18:14:07.001Z,97780.69
2022-11-09T18:18:10.597Z,97804.06
2022-11-09T18:22:15.522Z,97798.84
2022-11-09T18:26:20.889Z,97787.75
2022-11-09T18:30:24.652Z,97785.31
2022-11-09T18:34:28.173Z,97790.50
2022-11-09T18:38:33.544Z,97787.75
2022-11-09T18:42:37.373Z,97792.94
2022-11-09T18:46:40.863Z,97788.72
2022-11-09T18:50:44.590Z,97799.25
2022-11-09T18:54:50.223Z,97802.00
2022-11-09T18:58:55.693Z,97815.13
2022-11-09T19:02:58.698Z,97809.09
2022-11-09T19:07:02.438Z,97819.78
2022-11-09T19:11:11.008Z,97835.34
2022-11-09T19:15:14.328Z,97830.34
2022-11-09T19:19:18.361Z,97841.53
2022-11-09T19:23:22.009Z,97853.41
2022-11-09T19:27:29.084Z,97851.34
2022-11-09T19:31:34.303Z,97855.56
2022-11-09T19:35:37.785Z,97850.09
2022-11-09T19:39:45.345Z,97849.16
2022-11-09T19:43:52.873Z,97851.59
2022-11-09T19:47:56.356Z,97862.00
2022-11-09T19:52:00.844Z,97874.19
2022-11-09T19:56:09.363Z,97875.81
2022-11-09T20:00:18.063Z,97894.81
2022-11-09T20:04:21.333Z,97894.00
2022-11-09T20:08:26.043Z,97894.97
2022-11-09T20:12:46.885Z,97890.56
2022-11-09T20:16:55.534Z,97895.78
2022-11-09T20:21:00.221Z,97896.84
2022-11-09T20:25:07.342Z,97886.22
2022-11-09T20:29:12.935Z,97894.44
2022-11-09T20:33:19.195Z,97889.53
2022-11-09T20:37:26.287Z,97901.03
2022-11-09T20:41:29.633Z,97895.97
2022-11-09T20:45:33.151Z,97907.28
2022-11-09T20:49:37.788Z,97907.59
2022-11-09T20:53:41.327Z,97902.69
2022-11-09T20:57:44.453Z,97913.06
2022-11-09T21:01:49.091Z,97916.31
2022-11-09T21:05:59.319Z,97922.22
2022-11-09T21:10:03.074Z,97929.88
2022-11-09T21:14:06.204Z,97930.66
2022-11-09T21:18:10.127Z,97934.91
2022-11-09T21:22:15.596Z,97941.88
2022-11-09T21:26:35.973Z,97936.03
2022-11-09T21:30:39.600Z,97939.56
2022-11-09T21:34:43.023Z,97941.34
2022-11-09T21:38:47.527Z,97939.41
2022-11-09T21:42:50.874Z,97940.13
2022-11-09T21:46:54.480Z,97948.56
2022-11-09T21:50:59.060Z,97945.03
2022-11-09T21:55:04.051Z,97943.91
2022-11-09T21:59:08.071Z,97939.56
2022-11-09T22:03:11.220Z,97953.47
2022-11-09T22:07:15.035Z,97955.13
2022-11-09T22:11:21.657Z,97951.72
2022-11-09T22:15:42.306Z,97957.03
2022-11-09T22:20:03.688Z,97960.59
2022-11-09T22:24:07.922Z,97952.97
2022-11-09T22:28:13.200Z,97960.75
2022-11-09T22:32:16.644Z,97972.91
2022-11-09T22:36:20.726Z,97973.19
2022-11-09T22:40:24.998Z,97991.34
2022-11-09T22:44:29.878Z,97981.94
2022-11-09T22:48:34.159Z,97980.31
2022-11-09T22:52:37.663Z,97990.69
2022-11-09T22:56:41.190Z,97997.78
2022-11-09T23:00:45.780Z,98001.22
2022-11-09T23:04:49.061Z,97997.94
2022-11-09T23:08:52.883Z,98001.63
2022-11-09T23:12:56.035Z,98005.03
2022-11-09T23:17:01.639Z,98008.72
2022-11-09T23:21:05.176Z,98011.59
2022-11-09T23:25:27.360Z,98009.25
2022-11-09T23:29:30.892Z,98017.88
2022-11-09T23:33:36.025Z,98001.63
2022-11-09T23:37:40.596Z,98008.59
2022-11-09T23:41:44.084Z,98019.91
2022-11-09T23:45:47.862Z,98023.47
2022-11-09T23:49:52.708Z,98029.50
2022-11-09T23:53:56.175Z,98029.66
2022-11-09T23:58:02.388Z,98030.31
